Terminal Aerodrome Forecast
Issued by NWS

Home | Current Version | Previous Version | Graphics & Text | Print | Product List | Glossary On
Versions: 1 2 3 4 5 6 7 8 9 10 11 12 13 14 15 16
680
FTUS43 KICT 040529
TAFSLN
TAF
KSLN 040529Z 0406/0506 VRB04KT 5SM -RA OVC015
      TEMPO 0408/0412 3SM BR OVC007
     FM041200 28007KT 5SM BR OVC007
     FM041600 31007KT P6SM FEW015
     FM050100 21006KT P6SM SKC=

USA.gov is the U.S. government's official web portal to all federal, state and local government web resources and services.